createdAt,value
2022-12-07T00:04:14.555Z,4111.5
2022-12-07T00:09:50.115Z,4109.9
2022-12-07T00:15:25.414Z,4109.4
2022-12-07T00:21:00.692Z,4108.9
2022-12-07T00:26:36.685Z,4107.3
2022-12-07T00:32:33.807Z,4108.1
2022-12-07T00:38:08.963Z,4104.9
2022-12-07T00:43:44.031Z,4107.1
2022-12-07T00:49:19.129Z,4105.4
2022-12-07T00:54:55.583Z,4104.6
2022-12-07T01:00:31.894Z,4105.1
2022-12-07T01:06:08.002Z,4106.1
2022-12-07T01:11:44.114Z,4107.9
2022-12-07T01:17:20.591Z,4109.4
2022-12-07T01:22:55.921Z,4107.1
2022-12-07T01:28:31.733Z,4103.6
2022-12-07T01:34:08.106Z,4108.4
2022-12-07T01:39:43.213Z,4106.3
2022-12-07T01:45:22.698Z,4104.4
2022-12-07T01:50:57.985Z,4101.4
2022-12-07T01:56:45.037Z,4102.7
2022-12-07T02:02:22.160Z,4102.2
2022-12-07T02:07:58.640Z,4101.1
2022-12-07T02:13:33.870Z,4102.1
2022-12-07T02:19:09.053Z,4101.9
2022-12-07T02:24:44.734Z,4100.1
2022-12-07T02:30:19.433Z,4102.4
2022-12-07T02:35:54.398Z,4101.4
2022-12-07T02:41:29.374Z,4101.7
2022-12-07T02:47:05.014Z,4098.9
2022-12-07T02:52:40.171Z,4098.1
2022-12-07T02:58:14.866Z,4100.4
2022-12-07T03:03:50.415Z,4098.7
2022-12-07T03:09:30.094Z,4099.6
2022-12-07T03:15:05.225Z,4101.1
2022-12-07T03:20:47.799Z,4097.7
2022-12-07T03:26:23.012Z,4099.6
2022-12-07T03:32:00.806Z,4098.1
2022-12-07T03:37:36.748Z,4097.2
2022-12-07T03:43:11.551Z,4097.2
2022-12-07T03:49:08.395Z,4096.7
2022-12-07T03:54:42.729Z,4097.4
2022-12-07T04:00:17.809Z,4097.4
2022-12-07T04:05:53.369Z,4096.9
2022-12-07T04:11:28.410Z,4095.9
2022-12-07T04:17:03.183Z,4096
2022-12-07T04:22:38.309Z,4096.2
2022-12-07T04:28:13.631Z,4095.9
2022-12-07T04:33:48.866Z,4096.5
2022-12-07T04:39:24.828Z,4095
2022-12-07T04:44:59.716Z,4095.7
2022-12-07T04:50:39.716Z,4095
2022-12-07T04:56:46.317Z,4096.4
2022-12-07T05:02:23.137Z,4096.2
2022-12-07T05:07:59.503Z,4094.2
2022-12-07T05:13:35.740Z,4094.5
2022-12-07T05:19:14.665Z,4096.7
2022-12-07T05:24:49.593Z,4094.5
2022-12-07T05:30:25.006Z,4094.5
2022-12-07T05:36:02.480Z,4093.9
2022-12-07T05:41:37.383Z,4094.5
2022-12-07T05:47:34.683Z,4090.9
2022-12-07T05:53:08.388Z,4092.7
2022-12-07T05:58:46.725Z,4091.5
2022-12-07T06:04:22.723Z,4092.4
2022-12-07T06:09:57.855Z,4092.2
2022-12-07T06:15:33.790Z,4092.2
2022-12-07T06:21:09.511Z,4093.4
2022-12-07T06:26:47.529Z,4089.5
2022-12-07T06:32:25.129Z,4091.5
2022-12-07T06:38:00.336Z,4090.5
2022-12-07T06:43:44.067Z,4091.7
2022-12-07T06:49:41.259Z,4086.7
2022-12-07T06:55:17.734Z,4090.4
2022-12-07T07:00:53.953Z,4092
2022-12-07T07:06:56.755Z,4089.3
2022-12-07T07:12:43.995Z,4090.9
2022-12-07T07:18:20.382Z,4092.7
2022-12-07T07:24:06.824Z,4085.2
2022-12-07T07:29:42.373Z,4089.8
2022-12-07T07:35:18.957Z,4088.8
2022-12-07T07:40:58.043Z,4088.8
2022-12-07T07:46:56.198Z,4085.2
2022-12-07T07:52:28.846Z,4087.3
2022-12-07T07:58:05.003Z,4089
2022-12-07T08:03:40.355Z,4086.7
2022-12-07T08:09:15.580Z,4086.7
2022-12-07T08:14:53.082Z,4094
2022-12-07T08:20:36.191Z,4092.9
2022-12-07T08:26:19.264Z,4087
2022-12-07T08:32:06.546Z,4087.7
2022-12-07T08:37:45.574Z,4090.2
2022-12-07T08:43:24.244Z,4084.8
2022-12-07T08:49:25.682Z,4088.5
2022-12-07T08:55:19.701Z,4095.9
2022-12-07T09:01:03.969Z,4100.4
2022-12-07T09:06:42.348Z,4097
2022-12-07T09:12:18.006Z,4099.2
2022-12-07T09:17:53.541Z,4100.4
2022-12-07T09:23:30.769Z,4108.6
2022-12-07T09:29:05.939Z,4104.9
2022-12-07T09:34:42.702Z,4107.9
2022-12-07T09:40:17.770Z,4117.5
2022-12-07T09:45:53.331Z,4145.3
2022-12-07T09:51:52.293Z,4143.1
2022-12-07T09:57:46.767Z,4141.4
2022-12-07T10:03:37.848Z,4145.6
2022-12-07T10:09:59.725Z,4135.2
2022-12-07T10:15:37.174Z,4130.4
2022-12-07T10:21:12.714Z,4137.6
2022-12-07T10:26:55.962Z,4161.5
2022-12-07T10:32:31.926Z,4194.2
2022-12-07T10:38:28.006Z,4193.9
2022-12-07T10:44:07.745Z,4155.2
2022-12-07T10:50:05.634Z,4148
2022-12-07T10:55:47.259Z,4160
2022-12-07T11:01:27.368Z,4165.6
2022-12-07T11:07:03.195Z,4165.1
2022-12-07T11:12:58.948Z,4164.4
2022-12-07T11:18:34.298Z,4177.3
2022-12-07T11:24:31.757Z,4168.6
2022-12-07T11:30:11.591Z,4179.3
2022-12-07T11:35:57.891Z,4176.3
2022-12-07T11:41:55.058Z,4190.5
2022-12-07T11:47:52.725Z,4193.5
2022-12-07T11:53:28.132Z,4178
2022-12-07T11:59:06.852Z,4196
2022-12-07T12:04:44.519Z,4189.2
2022-12-07T12:10:23.749Z,4198.4
2022-12-07T12:15:59.839Z,4192.5
2022-12-07T12:21:36.478Z,4183.1
2022-12-07T12:27:11.229Z,4176.1
2022-12-07T12:32:56.947Z,4184.7
2022-12-07T12:38:37.991Z,4192.4
2022-12-07T12:45:25.731Z,4204.8
2022-12-07T12:51:48.842Z,4204.2
2022-12-07T12:57:25.950Z,4202.7
2022-12-07T13:03:13.223Z,4187.2
2022-12-07T13:08:51.873Z,4180.8
2022-12-07T13:14:41.070Z,4191.4
2022-12-07T13:20:19.840Z,4205.9
2022-12-07T13:25:57.773Z,4211
2022-12-07T13:31:42.433Z,4212.3
2022-12-07T13:37:17.522Z,4199.7
2022-12-07T13:42:53.163Z,4187.8
2022-12-07T13:48:50.462Z,4189.7
2022-12-07T13:54:23.413Z,4201.1
2022-12-07T14:01:52.136Z,4200.6
2022-12-07T14:07:34.885Z,4201.2
2022-12-07T14:13:38.621Z,4207.3
2022-12-07T14:19:14.444Z,4184.8
2022-12-07T14:24:57.256Z,4189.7
2022-12-07T14:30:34.971Z,4214.8
2022-12-07T14:36:13.090Z,4181.1
2022-12-07T14:42:31.265Z,4188.8
2022-12-07T14:49:36.327Z,4187.7
2022-12-07T14:55:22.898Z,4188.7
2022-12-07T15:00:58.698Z,4191.2
2022-12-07T15:06:38.385Z,4188.8
2022-12-07T15:12:44.306Z,4191
2022-12-07T15:18:27.036Z,4184.8
2022-12-07T15:24:19.919Z,4179
2022-12-07T15:30:11.089Z,4172.6
2022-12-07T15:35:48.081Z,4174.4
2022-12-07T15:41:29.898Z,4168.7
2022-12-07T15:47:27.526Z,4164.4
2022-12-07T15:53:00.693Z,4166.4
2022-12-07T15:58:46.115Z,4166.2
2022-12-07T16:04:24.901Z,4168.4
2022-12-07T16:09:59.976Z,4164.9
2022-12-07T16:15:37.433Z,4165.6
2022-12-07T16:21:13.618Z,4160.7
2022-12-07T16:27:36.661Z,4160.7
2022-12-07T16:33:28.152Z,4160.4
2022-12-07T16:39:23.328Z,4161.5
2022-12-07T16:44:58.302Z,4161.2
2022-12-07T16:50:33.539Z,4159
2022-12-07T16:56:15.194Z,4159.9
2022-12-07T17:02:34.435Z,4155.7
2022-12-07T17:08:10.914Z,4156.7
2022-12-07T17:13:46.397Z,4158
2022-12-07T17:19:21.696Z,4156.5
2022-12-07T17:25:01.231Z,4156.5
2022-12-07T17:30:44.420Z,4158.5
2022-12-07T17:36:25.472Z,4153.8
2022-12-07T17:42:16.405Z,4155.8
2022-12-07T17:48:13.652Z,4151.5
2022-12-07T17:53:52.088Z,4152.7
2022-12-07T17:59:32.398Z,4153.7
2022-12-07T18:05:16.129Z,4154.3
2022-12-07T18:10:52.479Z,4152.5
2022-12-07T18:16:32.646Z,4152
2022-12-07T18:22:12.032Z,4152.5
2022-12-07T18:27:50.389Z,4150
2022-12-07T18:33:29.422Z,4150.6
2022-12-07T18:39:05.591Z,4151.2
2022-12-07T18:44:40.565Z,4150.1
2022-12-07T18:50:43.214Z,4150
2022-12-07T18:56:39.061Z,4151.3
2022-12-07T19:02:15.487Z,4149.1
2022-12-07T19:07:56.634Z,4149.5
2022-12-07T19:13:32.870Z,4150.3
2022-12-07T19:19:08.280Z,4148.8
2022-12-07T19:24:43.566Z,4150.1
2022-12-07T19:30:19.193Z,4149.5
2022-12-07T19:35:54.430Z,4148
2022-12-07T19:41:29.346Z,4146.6
2022-12-07T19:47:26.163Z,4145.8
2022-12-07T19:52:58.971Z,4149.8
2022-12-07T19:58:34.290Z,4149.8
2022-12-07T20:04:09.100Z,4150.1
2022-12-07T20:09:51.363Z,4148.6
2022-12-07T20:15:29.430Z,4148.5
2022-12-07T20:21:04.771Z,4150.3
2022-12-07T20:26:43.512Z,4148.5
2022-12-07T20:32:18.776Z,4146.8
2022-12-07T20:37:59.119Z,4147.6
2022-12-07T20:43:37.230Z,4147
2022-12-07T20:49:14.179Z,4147.5
2022-12-07T20:54:49.294Z,4147
2022-12-07T21:00:24.483Z,4146.1
2022-12-07T21:06:00.500Z,4146.5
2022-12-07T21:11:35.685Z,4142.8
2022-12-07T21:17:12.332Z,4143.4
2022-12-07T21:22:48.917Z,4145.6
2022-12-07T21:28:32.449Z,4143.6
2022-12-07T21:34:08.079Z,4145.5
2022-12-07T21:39:43.585Z,4145.1
2022-12-07T21:45:19.482Z,4144.5
2022-12-07T21:50:54.368Z,4142.3
2022-12-07T21:56:29.555Z,4144
2022-12-07T22:02:05.638Z,4141.3
2022-12-07T22:07:44.379Z,4141.4
2022-12-07T22:13:19.650Z,4142.4
2022-12-07T22:18:55.124Z,4141.9
2022-12-07T22:24:31.349Z,4141.4
2022-12-07T22:30:08.693Z,4144.3
2022-12-07T22:35:51.478Z,4139.8
2022-12-07T22:41:26.637Z,4140.6
2022-12-07T22:47:23.519Z,4138.6
2022-12-07T22:52:56.615Z,4143.1
2022-12-07T22:58:34.760Z,4140.1
2022-12-07T23:04:11.507Z,4139.8
2022-12-07T23:09:47.666Z,4138.1
2022-12-07T23:15:22.662Z,4137.9
2022-12-07T23:20:58.980Z,4139.1
2022-12-07T23:26:35.465Z,4140.3
2022-12-07T23:32:10.688Z,4141.4
2022-12-07T23:37:45.788Z,4137.9
2022-12-07T23:43:22.165Z,4138.3
2022-12-07T23:49:19.235Z,4136.9
2022-12-07T23:54:53.066Z,4140.4
